PWSweather.com
Personal Weather Stations
Station Observations
KCAOCEAN4
Jeffries Ranch, Oceanside, CA 92057

Jeffries RanchOceanside, CA 92057

Lat: 33.2463208, Lon: -117.25335080000002

Elevation: 207

Station Type: Davis Vantage Vue

jeffriesranchweather.com

High Low Average
Temperature 67.6°F19.8°C 43.9°F6.6°C 55.9°F13.3°C
Dew Point 57.0°F13.9°C 38.1°F3.4°C 49.4°F9.7°C
Winds 6.9 mph 11.1 kmh Calm Calm 2.0 mph S3.2 kmh S
Wind Gusts 12.1 mph19.5 kmh -- 5.0 mph8.0 kmh
Humidity 94% 57% 79%
Pressure 29.99 in1015.6 mb 29.90 in1012.5 mb -
Precipitation 0.00 in0.0 mm - -
Hour Temp Dew Point Humidity Winds Wind Gusts Pressure Precip Precip Rate Daily Precip Total
12:03 AM 47.7°F8.7°C 41.2°F5.1°C 78% 0.9 mph E1.4 kmh E 2.0 mph3.2 kmh 29.97 in1014.9 mb 0.00 in0.0 mm 0.00 in0.0 mm 0.00 in0.0 mm
12:13 AM 47.7°F8.7°C 40.8°F4.9°C 77% 0.9 mph SE1.4 kmh SE 2.0 mph3.2 kmh 29.96 in1014.6 mb 0.00 in0.0 mm 0.00 in0.0 mm 0.00 in0.0 mm
12:23 AM 47.8°F8.8°C 41.0°F5.0°C 77% Calm Calm 0.9 mph1.4 kmh 29.96 in1014.6 mb 0.00 in0.0 mm 0.00 in0.0 mm 0.00 in0.0 mm
12:33 AM 48.0°F8.9°C 40.8°F4.9°C 76% 0.9 mph NE1.4 kmh NE 4.0 mph6.4 kmh 29.96 in1014.6 mb 0.00 in0.0 mm 0.00 in0.0 mm 0.00 in0.0 mm
12:43 AM 47.1°F8.4°C 39.2°F4.0°C 74% 0.9 mph NE1.4 kmh NE 4.0 mph6.4 kmh 29.96 in1014.6 mb 0.00 in0.0 mm 0.00 in0.0 mm 0.00 in0.0 mm
12:53 AM 46.9°F8.3°C 39.0°F3.9°C 74% 2.0 mph E3.2 kmh E 5.0 mph8.0 kmh 29.96 in1014.6 mb 0.00 in0.0 mm 0.00 in0.0 mm 0.00 in0.0 mm
01:03 AM 46.6°F8.1°C 39.4°F4.1°C 76% 0.9 mph NNE1.4 kmh NNE 4.0 mph6.4 kmh 29.97 in1014.9 mb 0.00 in0.0 mm 0.00 in0.0 mm 0.00 in0.0 mm
01:13 AM 46.4°F8.0°C 39.2°F4.0°C 76% 0.9 mph E1.4 kmh E 2.9 mph4.7 kmh 29.97 in1014.9 mb 0.00 in0.0 mm 0.00 in0.0 mm 0.00 in0.0 mm
01:23 AM 46.2°F7.9°C 39.0°F3.9°C 76% 2.0 mph NE3.2 kmh NE 5.0 mph8.0 kmh 29.97 in1014.9 mb 0.00 in0.0 mm 0.00 in0.0 mm 0.00 in0.0 mm
01:33 AM 46.6°F8.1°C 39.7°F4.3°C 77% Calm Calm 2.0 mph3.2 kmh 29.97 in1014.9 mb 0.00 in0.0 mm 0.00 in0.0 mm 0.00 in0.0 mm
01:43 AM 46.4°F8.0°C 39.2°F4.0°C 76% 0.9 mph E1.4 kmh E 3.0 mph4.8 kmh 29.97 in1014.9 mb 0.00 in0.0 mm 0.00 in0.0 mm 0.00 in0.0 mm
01:53 AM 45.9°F7.7°C 39.0°F3.9°C 77% Calm Calm 2.0 mph3.2 kmh 29.97 in1014.9 mb 0.00 in0.0 mm 0.00 in0.0 mm 0.00 in0.0 mm
02:03 AM 46.0°F7.8°C 39.2°F4.0°C 77% 0.9 mph E1.4 kmh E 3.0 mph4.8 kmh 29.97 in1014.9 mb 0.00 in0.0 mm 0.00 in0.0 mm 0.00 in0.0 mm
02:13 AM 45.5°F7.5°C 39.4°F4.1°C 79% 0.9 mph SE1.4 kmh SE 2.0 mph3.2 kmh 29.97 in1014.9 mb 0.00 in0.0 mm 0.00 in0.0 mm 0.00 in0.0 mm
02:23 AM 45.1°F7.3°C 39.7°F4.3°C 81% Calm Calm 0.9 mph1.4 kmh 29.97 in1014.9 mb 0.00 in0.0 mm 0.00 in0.0 mm 0.00 in0.0 mm
02:33 AM 45.3°F7.4°C 39.2°F4.0°C 79% Calm Calm 2.0 mph3.2 kmh 29.96 in1014.6 mb 0.00 in0.0 mm 0.00 in0.0 mm 0.00 in0.0 mm
02:43 AM 45.7°F7.6°C 38.8°F3.8°C 77% 0.9 mph ENE1.4 kmh ENE 3.0 mph4.8 kmh 29.96 in1014.6 mb 0.00 in0.0 mm 0.00 in0.0 mm 0.00 in0.0 mm
02:53 AM 45.3°F7.4°C 38.8°F3.8°C 78% 0.9 mph E1.4 kmh E 2.9 mph4.7 kmh 29.96 in1014.6 mb 0.00 in0.0 mm 0.00 in0.0 mm 0.00 in0.0 mm
03:03 AM 45.3°F7.4°C 38.8°F3.8°C 78% 2.0 mph ENE3.2 kmh ENE 5.0 mph8.0 kmh 29.96 in1014.6 mb 0.00 in0.0 mm 0.00 in0.0 mm 0.00 in0.0 mm
03:13 AM 45.1°F7.3°C 39.0°F3.9°C 79% 2.0 mph NE3.2 kmh NE 6.0 mph9.7 kmh 29.95 in1014.2 mb 0.00 in0.0 mm 0.00 in0.0 mm 0.00 in0.0 mm
03:23 AM 45.0°F7.2°C 38.8°F3.8°C 79% 2.9 mph E4.7 kmh E 6.9 mph11.1 kmh 29.95 in1014.2 mb 0.00 in0.0 mm 0.00 in0.0 mm 0.00 in0.0 mm
03:33 AM 45.1°F7.3°C 38.7°F3.7°C 78% 2.0 mph NE3.2 kmh NE 4.0 mph6.4 kmh 29.95 in1014.2 mb 0.00 in0.0 mm 0.00 in0.0 mm 0.00 in0.0 mm
03:43 AM 45.1°F7.3°C 38.7°F3.7°C 78% 0.9 mph E1.4 kmh E 4.0 mph6.4 kmh 29.95 in1014.2 mb 0.00 in0.0 mm 0.00 in0.0 mm 0.00 in0.0 mm
03:53 AM 45.1°F7.3°C 39.0°F3.9°C 79% 2.0 mph NE3.2 kmh NE 5.0 mph8.0 kmh 29.95 in1014.2 mb 0.00 in0.0 mm 0.00 in0.0 mm 0.00 in0.0 mm
04:03 AM 45.1°F7.3°C 38.7°F3.7°C 78% 0.9 mph ENE1.4 kmh ENE 4.0 mph6.4 kmh 29.95 in1014.2 mb 0.00 in0.0 mm 0.00 in0.0 mm 0.00 in0.0 mm
04:13 AM 44.8°F7.1°C 38.7°F3.7°C 79% 2.0 mph NE3.2 kmh NE 5.0 mph8.0 kmh 29.95 in1014.2 mb 0.00 in0.0 mm 0.00 in0.0 mm 0.00 in0.0 mm
04:23 AM 45.0°F7.2°C 38.5°F3.6°C 78% 2.0 mph NE3.2 kmh NE 6.0 mph9.7 kmh 29.94 in1013.9 mb 0.00 in0.0 mm 0.00 in0.0 mm 0.00 in0.0 mm
04:33 AM 44.8°F7.1°C 38.7°F3.7°C 79% 2.0 mph NE3.2 kmh NE 6.0 mph9.7 kmh 29.95 in1014.2 mb 0.00 in0.0 mm 0.00 in0.0 mm 0.00 in0.0 mm
04:43 AM 44.4°F6.9°C 38.3°F3.5°C 79% 2.0 mph ENE3.2 kmh ENE 7.0 mph11.3 kmh 29.95 in1014.2 mb 0.00 in0.0 mm 0.00 in0.0 mm 0.00 in0.0 mm
04:53 AM 44.2°F6.8°C 38.5°F3.6°C 80% 2.0 mph ENE3.2 kmh ENE 4.0 mph6.4 kmh 29.95 in1014.2 mb 0.00 in0.0 mm 0.00 in0.0 mm 0.00 in0.0 mm
05:03 AM 44.1°F6.7°C 38.3°F3.5°C 80% 0.9 mph NE1.4 kmh NE 2.9 mph4.7 kmh 29.95 in1014.2 mb 0.00 in0.0 mm 0.00 in0.0 mm 0.00 in0.0 mm
05:13 AM 44.1°F6.7°C 38.3°F3.5°C 80% 0.9 mph ENE1.4 kmh ENE 5.0 mph8.0 kmh 29.96 in1014.6 mb 0.00 in0.0 mm 0.00 in0.0 mm 0.00 in0.0 mm
05:23 AM 43.9°F6.6°C 38.1°F3.4°C 80% 2.0 mph ENE3.2 kmh ENE 4.0 mph6.4 kmh 29.96 in1014.6 mb 0.00 in0.0 mm 0.00 in0.0 mm 0.00 in0.0 mm
05:33 AM 44.2°F6.8°C 38.5°F3.6°C 80% 2.0 mph ENE3.2 kmh ENE 4.0 mph6.4 kmh 29.96 in1014.6 mb 0.00 in0.0 mm 0.00 in0.0 mm 0.00 in0.0 mm
05:43 AM 44.4°F6.9°C 38.7°F3.7°C 80% 2.0 mph NE3.2 kmh NE 4.0 mph6.4 kmh 29.96 in1014.6 mb 0.00 in0.0 mm 0.00 in0.0 mm 0.00 in0.0 mm
05:53 AM 44.8°F7.1°C 39.0°F3.9°C 80% 0.9 mph NE1.4 kmh NE 4.0 mph6.4 kmh 29.96 in1014.6 mb 0.00 in0.0 mm 0.00 in0.0 mm 0.00 in0.0 mm
06:03 AM 44.4°F6.9°C 38.3°F3.5°C 79% 2.0 mph ENE3.2 kmh ENE 6.0 mph9.7 kmh 29.96 in1014.6 mb 0.00 in0.0 mm 0.00 in0.0 mm 0.00 in0.0 mm
06:13 AM 44.4°F6.9°C 38.7°F3.7°C 80% 2.0 mph E3.2 kmh E 6.9 mph11.1 kmh 29.96 in1014.6 mb 0.00 in0.0 mm 0.00 in0.0 mm 0.00 in0.0 mm
06:23 AM 44.6°F7.0°C 38.5°F3.6°C 79% 2.0 mph ENE3.2 kmh ENE 6.0 mph9.7 kmh 29.96 in1014.6 mb 0.00 in0.0 mm 0.00 in0.0 mm 0.00 in0.0 mm
06:33 AM 44.8°F7.1°C 38.7°F3.7°C 79% 0.9 mph E1.4 kmh E 4.0 mph6.4 kmh 29.96 in1014.6 mb 0.00 in0.0 mm 0.00 in0.0 mm 0.00 in0.0 mm
06:43 AM 44.8°F7.1°C 38.7°F3.7°C 79% 2.0 mph E3.2 kmh E 4.9 mph7.9 kmh 29.96 in1014.6 mb 0.00 in0.0 mm 0.00 in0.0 mm 0.00 in0.0 mm
06:53 AM 44.8°F7.1°C 38.7°F3.7°C 79% 0.9 mph E1.4 kmh E 4.0 mph6.4 kmh 29.96 in1014.6 mb 0.00 in0.0 mm 0.00 in0.0 mm 0.00 in0.0 mm
07:03 AM 45.0°F7.2°C 38.5°F3.6°C 78% 2.0 mph NE3.2 kmh NE 4.0 mph6.4 kmh 29.96 in1014.6 mb 0.00 in0.0 mm 0.00 in0.0 mm 0.00 in0.0 mm
07:13 AM 45.0°F7.2°C 38.8°F3.8°C 79% 0.9 mph ESE1.4 kmh ESE 2.9 mph4.7 kmh 29.96 in1014.6 mb 0.00 in0.0 mm 0.00 in0.0 mm 0.00 in0.0 mm
07:23 AM 44.8°F7.1°C 38.7°F3.7°C 79% 0.9 mph ENE1.4 kmh ENE 2.0 mph3.2 kmh 29.96 in1014.6 mb 0.00 in0.0 mm 0.00 in0.0 mm 0.00 in0.0 mm
07:33 AM 45.3°F7.4°C 39.2°F4.0°C 79% 0.9 mph E1.4 kmh E 2.9 mph4.7 kmh 29.96 in1014.6 mb 0.00 in0.0 mm 0.00 in0.0 mm 0.00 in0.0 mm
07:44 AM 46.2°F7.9°C 39.4°F4.1°C 77% 2.0 mph NE3.2 kmh NE 6.0 mph9.7 kmh 29.97 in1014.9 mb 0.00 in0.0 mm 0.00 in0.0 mm 0.00 in0.0 mm
07:54 AM 46.9°F8.3°C 39.4°F4.1°C 75% 0.9 mph E1.4 kmh E 4.0 mph6.4 kmh 29.98 in1015.2 mb 0.00 in0.0 mm 0.00 in0.0 mm 0.00 in0.0 mm
08:04 AM 47.7°F8.7°C 40.1°F4.5°C 75% 0.9 mph E1.4 kmh E 2.9 mph4.7 kmh 29.98 in1015.2 mb 0.00 in0.0 mm 0.00 in0.0 mm 0.00 in0.0 mm
08:14 AM 48.2°F9.0°C 40.3°F4.6°C 74% 0.9 mph ENE1.4 kmh ENE 2.9 mph4.7 kmh 29.98 in1015.2 mb 0.00 in0.0 mm 0.00 in0.0 mm 0.00 in0.0 mm
08:24 AM 49.1°F9.5°C 40.5°F4.7°C 72% 0.9 mph E1.4 kmh E 2.9 mph4.7 kmh 29.98 in1015.2 mb 0.00 in0.0 mm 0.00 in0.0 mm 0.00 in0.0 mm
08:34 AM 50.2°F10.1°C 41.2°F5.1°C 71% 0.9 mph ENE1.4 kmh ENE 3.0 mph4.8 kmh 29.99 in1015.6 mb 0.00 in0.0 mm 0.00 in0.0 mm 0.00 in0.0 mm
08:44 AM 51.1°F10.6°C 41.2°F5.1°C 69% 0.9 mph E1.4 kmh E 2.9 mph4.7 kmh 29.99 in1015.6 mb 0.00 in0.0 mm 0.00 in0.0 mm 0.00 in0.0 mm
08:54 AM 52.0°F11.1°C 41.4°F5.2°C 67% 0.9 mph ENE1.4 kmh ENE 4.0 mph6.4 kmh 29.99 in1015.6 mb 0.00 in0.0 mm 0.00 in0.0 mm 0.00 in0.0 mm
09:04 AM 53.2°F11.8°C 41.7°F5.4°C 65% 0.9 mph E1.4 kmh E 4.0 mph6.4 kmh 29.98 in1015.2 mb 0.00 in0.0 mm 0.00 in0.0 mm 0.00 in0.0 mm
09:14 AM 54.5°F12.5°C 41.7°F5.4°C 62% 2.0 mph E3.2 kmh E 2.9 mph4.7 kmh 29.98 in1015.2 mb 0.00 in0.0 mm 0.00 in0.0 mm 0.00 in0.0 mm
09:24 AM 55.9°F13.3°C 41.9°F5.5°C 59% 0.9 mph NNE1.4 kmh NNE 2.9 mph4.7 kmh 29.98 in1015.2 mb 0.00 in0.0 mm 0.00 in0.0 mm 0.00 in0.0 mm
09:34 AM 57.6°F14.2°C 42.4°F5.8°C 57% Calm Calm 2.9 mph4.7 kmh 29.97 in1014.9 mb 0.00 in0.0 mm 0.00 in0.0 mm 0.00 in0.0 mm
09:44 AM 58.6°F14.8°C 44.4°F6.9°C 59% Calm Calm 0.9 mph1.4 kmh 29.97 in1014.9 mb 0.00 in0.0 mm 0.00 in0.0 mm 0.00 in0.0 mm
09:54 AM 60.1°F15.6°C 46.6°F8.1°C 61% Calm Calm 2.0 mph3.2 kmh 29.97 in1014.9 mb 0.00 in0.0 mm 0.00 in0.0 mm 0.00 in0.0 mm
10:04 AM 60.4°F15.8°C 46.9°F8.3°C 61% 0.9 mph W1.4 kmh W 3.0 mph4.8 kmh 29.97 in1014.9 mb 0.00 in0.0 mm 0.00 in0.0 mm 0.00 in0.0 mm
10:14 AM 61.3°F16.3°C 48.6°F9.2°C 63% 0.9 mph SW1.4 kmh SW 4.0 mph6.4 kmh 29.97 in1014.9 mb 0.00 in0.0 mm 0.00 in0.0 mm 0.00 in0.0 mm
10:24 AM 62.2°F16.8°C 51.6°F10.9°C 68% 2.0 mph WNW3.2 kmh WNW 6.0 mph9.7 kmh 29.97 in1014.9 mb 0.00 in0.0 mm 0.00 in0.0 mm 0.00 in0.0 mm
10:34 AM 63.1°F17.3°C 52.0°F11.1°C 67% 2.0 mph W3.2 kmh W 8.1 mph13.0 kmh 29.97 in1014.9 mb 0.00 in0.0 mm 0.00 in0.0 mm 0.00 in0.0 mm
10:44 AM 63.9°F17.7°C 53.1°F11.7°C 68% 2.0 mph SSE3.2 kmh SSE 8.1 mph13.0 kmh 29.97 in1014.9 mb 0.00 in0.0 mm 0.00 in0.0 mm 0.00 in0.0 mm
10:54 AM 64.2°F17.9°C 53.4°F11.9°C 68% 2.0 mph WNW3.2 kmh WNW 6.0 mph9.7 kmh 29.96 in1014.6 mb 0.00 in0.0 mm 0.00 in0.0 mm 0.00 in0.0 mm
11:04 AM 64.8°F18.2°C 53.6°F12.0°C 67% 2.0 mph WNW3.2 kmh WNW 6.0 mph9.7 kmh 29.96 in1014.6 mb 0.00 in0.0 mm 0.00 in0.0 mm 0.00 in0.0 mm
11:14 AM 65.8°F18.8°C 53.8°F12.1°C 65% 2.0 mph SSW3.2 kmh SSW 6.9 mph11.1 kmh 29.96 in1014.6 mb 0.00 in0.0 mm 0.00 in0.0 mm 0.00 in0.0 mm
11:24 AM 65.7°F18.7°C 54.0°F12.2°C 66% 2.0 mph SW3.2 kmh SW 6.0 mph9.7 kmh 29.97 in1014.9 mb 0.00 in0.0 mm 0.00 in0.0 mm 0.00 in0.0 mm
11:34 AM 66.2°F19.0°C 54.1°F12.3°C 65% 2.9 mph WSW4.7 kmh WSW 8.1 mph13.0 kmh 29.97 in1014.9 mb 0.00 in0.0 mm 0.00 in0.0 mm 0.00 in0.0 mm
11:44 AM 67.5°F19.7°C 55.8°F13.2°C 66% 2.9 mph SW4.7 kmh SW 8.1 mph13.0 kmh 29.98 in1015.2 mb 0.00 in0.0 mm 0.00 in0.0 mm 0.00 in0.0 mm
11:54 AM 66.7°F19.3°C 55.8°F13.2°C 68% 4.9 mph W7.9 kmh W 8.9 mph14.3 kmh 29.97 in1014.9 mb 0.00 in0.0 mm 0.00 in0.0 mm 0.00 in0.0 mm
12:04 PM 67.3°F19.6°C 56.3°F13.5°C 68% 4.0 mph W6.4 kmh W 10.1 mph16.3 kmh 29.97 in1014.9 mb 0.00 in0.0 mm 0.00 in0.0 mm 0.00 in0.0 mm
12:14 PM 67.3°F19.6°C 56.8°F13.8°C 69% 4.0 mph SW6.4 kmh SW 10.1 mph16.3 kmh 29.98 in1015.2 mb 0.00 in0.0 mm 0.00 in0.0 mm 0.00 in0.0 mm
12:24 PM 67.6°F19.8°C 56.7°F13.7°C 68% 4.9 mph WNW7.9 kmh WNW 10.1 mph16.3 kmh 29.97 in1014.9 mb 0.00 in0.0 mm 0.00 in0.0 mm 0.00 in0.0 mm
12:34 PM 67.5°F19.7°C 56.5°F13.6°C 68% 6.0 mph WSW9.7 kmh WSW 11.0 mph17.7 kmh 29.98 in1015.2 mb 0.00 in0.0 mm 0.00 in0.0 mm 0.00 in0.0 mm
12:44 PM 66.9°F19.4°C 56.5°F13.6°C 69% 6.0 mph WNW9.7 kmh WNW 11.0 mph17.7 kmh 29.97 in1014.9 mb 0.00 in0.0 mm 0.00 in0.0 mm 0.00 in0.0 mm
12:54 PM 66.7°F19.3°C 56.3°F13.5°C 69% 4.9 mph WNW7.9 kmh WNW 10.1 mph16.3 kmh 29.97 in1014.9 mb 0.00 in0.0 mm 0.00 in0.0 mm 0.00 in0.0 mm
01:04 PM 67.1°F19.5°C 55.8°F13.2°C 67% 4.9 mph WNW7.9 kmh WNW 10.1 mph16.3 kmh 29.96 in1014.6 mb 0.00 in0.0 mm 0.00 in0.0 mm 0.00 in0.0 mm
01:14 PM 66.6°F19.2°C 56.5°F13.6°C 70% 6.0 mph WNW9.7 kmh WNW 11.0 mph17.7 kmh 29.95 in1014.2 mb 0.00 in0.0 mm 0.00 in0.0 mm 0.00 in0.0 mm
01:24 PM 66.7°F19.3°C 56.3°F13.5°C 69% 6.9 mph W11.1 kmh W 12.1 mph19.5 kmh 29.94 in1013.9 mb 0.00 in0.0 mm 0.00 in0.0 mm 0.00 in0.0 mm
01:34 PM 66.6°F19.2°C 56.5°F13.6°C 70% 4.9 mph W7.9 kmh W 8.9 mph14.3 kmh 29.93 in1013.5 mb 0.00 in0.0 mm 0.00 in0.0 mm 0.00 in0.0 mm
01:44 PM 66.9°F19.4°C 56.5°F13.6°C 69% 4.0 mph W6.4 kmh W 10.1 mph16.3 kmh 29.93 in1013.5 mb 0.00 in0.0 mm 0.00 in0.0 mm 0.00 in0.0 mm
01:54 PM 66.6°F19.2°C 56.5°F13.6°C 70% 6.9 mph NW11.1 kmh NW 11.0 mph17.7 kmh 29.93 in1013.5 mb 0.00 in0.0 mm 0.00 in0.0 mm 0.00 in0.0 mm
02:04 PM 66.2°F19.0°C 56.5°F13.6°C 71% 6.0 mph WSW9.7 kmh WSW 12.1 mph19.5 kmh 29.93 in1013.5 mb 0.00 in0.0 mm 0.00 in0.0 mm 0.00 in0.0 mm
02:14 PM 65.5°F18.6°C 56.7°F13.7°C 73% 4.9 mph W7.9 kmh W 10.1 mph16.3 kmh 29.93 in1013.5 mb 0.00 in0.0 mm 0.00 in0.0 mm 0.00 in0.0 mm
02:24 PM 64.9°F18.3°C 56.5°F13.6°C 74% 6.0 mph W9.7 kmh W 11.0 mph17.7 kmh 29.93 in1013.5 mb 0.00 in0.0 mm 0.00 in0.0 mm 0.00 in0.0 mm
02:34 PM 64.6°F18.1°C 56.8°F13.8°C 76% 6.0 mph W9.7 kmh W 8.9 mph14.3 kmh 29.93 in1013.5 mb 0.00 in0.0 mm 0.00 in0.0 mm 0.00 in0.0 mm
02:44 PM 64.8°F18.2°C 57.0°F13.9°C 76% 4.9 mph W7.9 kmh W 8.9 mph14.3 kmh 29.93 in1013.5 mb 0.00 in0.0 mm 0.00 in0.0 mm 0.00 in0.0 mm
02:54 PM 64.6°F18.1°C 56.8°F13.8°C 76% 6.0 mph WNW9.7 kmh WNW 10.1 mph16.3 kmh 29.93 in1013.5 mb 0.00 in0.0 mm 0.00 in0.0 mm 0.00 in0.0 mm
03:04 PM 64.9°F18.3°C 56.5°F13.6°C 74% 4.9 mph WNW7.9 kmh WNW 10.1 mph16.3 kmh 29.93 in1013.5 mb 0.00 in0.0 mm 0.00 in0.0 mm 0.00 in0.0 mm
03:14 PM 64.8°F18.2°C 56.3°F13.5°C 74% 4.9 mph WSW7.9 kmh WSW 11.0 mph17.7 kmh 29.93 in1013.5 mb 0.00 in0.0 mm 0.00 in0.0 mm 0.00 in0.0 mm
03:24 PM 64.9°F18.3°C 56.5°F13.6°C 74% 4.0 mph WSW6.4 kmh WSW 8.9 mph14.3 kmh 29.92 in1013.2 mb 0.00 in0.0 mm 0.00 in0.0 mm 0.00 in0.0 mm
03:34 PM 64.9°F18.3°C 56.5°F13.6°C 74% 4.0 mph SSE6.4 kmh SSE 8.9 mph14.3 kmh 29.92 in1013.2 mb 0.00 in0.0 mm 0.00 in0.0 mm 0.00 in0.0 mm
03:44 PM 65.5°F18.6°C 56.7°F13.7°C 73% 2.9 mph WSW4.7 kmh WSW 6.9 mph11.1 kmh 29.92 in1013.2 mb 0.00 in0.0 mm 0.00 in0.0 mm 0.00 in0.0 mm
03:54 PM 65.3°F18.5°C 56.8°F13.8°C 74% 4.0 mph SW6.4 kmh SW 8.1 mph13.0 kmh 29.91 in1012.9 mb 0.00 in0.0 mm 0.00 in0.0 mm 0.00 in0.0 mm
04:04 PM 64.8°F18.2°C 56.3°F13.5°C 74% 4.9 mph WSW7.9 kmh WSW 8.9 mph14.3 kmh 29.91 in1012.9 mb 0.00 in0.0 mm 0.00 in0.0 mm 0.00 in0.0 mm
04:14 PM 64.6°F18.1°C 56.8°F13.8°C 76% 4.9 mph WNW7.9 kmh WNW 10.1 mph16.3 kmh 29.91 in1012.9 mb 0.00 in0.0 mm 0.00 in0.0 mm 0.00 in0.0 mm
04:24 PM 64.4°F18.0°C 56.7°F13.7°C 76% 4.9 mph W7.9 kmh W 11.0 mph17.7 kmh 29.92 in1013.2 mb 0.00 in0.0 mm 0.00 in0.0 mm 0.00 in0.0 mm
04:34 PM 63.9°F17.7°C 56.8°F13.8°C 78% 4.9 mph W7.9 kmh W 8.9 mph14.3 kmh 29.92 in1013.2 mb 0.00 in0.0 mm 0.00 in0.0 mm 0.00 in0.0 mm
04:44 PM 63.0°F17.2°C 56.3°F13.5°C 79% 4.9 mph W7.9 kmh W 8.1 mph13.0 kmh 29.92 in1013.2 mb 0.00 in0.0 mm 0.00 in0.0 mm 0.00 in0.0 mm
04:54 PM 62.4°F16.9°C 56.1°F13.4°C 80% 4.9 mph W7.9 kmh W 8.9 mph14.3 kmh 29.92 in1013.2 mb 0.00 in0.0 mm 0.00 in0.0 mm 0.00 in0.0 mm
05:04 PM 62.1°F16.7°C 56.1°F13.4°C 81% 4.9 mph SW7.9 kmh SW 10.1 mph16.3 kmh 29.92 in1013.2 mb 0.00 in0.0 mm 0.00 in0.0 mm 0.00 in0.0 mm
05:14 PM 61.7°F16.5°C 56.1°F13.4°C 82% 4.0 mph NW6.4 kmh NW 8.1 mph13.0 kmh 29.91 in1012.9 mb 0.00 in0.0 mm 0.00 in0.0 mm 0.00 in0.0 mm
05:24 PM 61.2°F16.2°C 55.9°F13.3°C 83% 4.0 mph NW6.4 kmh NW 8.1 mph13.0 kmh 29.91 in1012.9 mb 0.00 in0.0 mm 0.00 in0.0 mm 0.00 in0.0 mm
05:34 PM 61.0°F16.1°C 55.8°F13.2°C 83% 2.9 mph W4.7 kmh W 6.0 mph9.7 kmh 29.91 in1012.9 mb 0.00 in0.0 mm 0.00 in0.0 mm 0.00 in0.0 mm
05:44 PM 60.3°F15.7°C 55.8°F13.2°C 85% 2.9 mph WSW4.7 kmh WSW 6.0 mph9.7 kmh 29.91 in1012.9 mb 0.00 in0.0 mm 0.00 in0.0 mm 0.00 in0.0 mm
05:54 PM 60.1°F15.6°C 55.9°F13.3°C 86% 2.0 mph W3.2 kmh W 4.9 mph7.9 kmh 29.91 in1012.9 mb 0.00 in0.0 mm 0.00 in0.0 mm 0.00 in0.0 mm
06:04 PM 59.7°F15.4°C 55.8°F13.2°C 87% 2.9 mph WSW4.7 kmh WSW 6.0 mph9.7 kmh 29.90 in1012.5 mb 0.00 in0.0 mm 0.00 in0.0 mm 0.00 in0.0 mm
06:14 PM 59.5°F15.3°C 55.9°F13.3°C 88% 2.9 mph SW4.7 kmh SW 7.0 mph11.3 kmh 29.91 in1012.9 mb 0.00 in0.0 mm 0.00 in0.0 mm 0.00 in0.0 mm
06:24 PM 59.5°F15.3°C 55.9°F13.3°C 88% 2.0 mph WNW3.2 kmh WNW 6.0 mph9.7 kmh 29.91 in1012.9 mb 0.00 in0.0 mm 0.00 in0.0 mm 0.00 in0.0 mm
06:34 PM 59.2°F15.1°C 55.9°F13.3°C 89% 2.9 mph SW4.7 kmh SW 6.0 mph9.7 kmh 29.91 in1012.9 mb 0.00 in0.0 mm 0.00 in0.0 mm 0.00 in0.0 mm
06:44 PM 58.8°F14.9°C 55.6°F13.1°C 89% 2.9 mph W4.7 kmh W 6.0 mph9.7 kmh 29.92 in1013.2 mb 0.00 in0.0 mm 0.00 in0.0 mm 0.00 in0.0 mm
06:54 PM 58.6°F14.8°C 55.8°F13.2°C 90% 2.0 mph W3.2 kmh W 4.9 mph7.9 kmh 29.91 in1012.9 mb 0.00 in0.0 mm 0.00 in0.0 mm 0.00 in0.0 mm
07:04 PM 58.3°F14.6°C 55.4°F13.0°C 90% 2.0 mph SW3.2 kmh SW 4.9 mph7.9 kmh 29.91 in1012.9 mb 0.00 in0.0 mm 0.00 in0.0 mm 0.00 in0.0 mm
07:14 PM 57.9°F14.4°C 55.2°F12.9°C 91% 2.0 mph SW3.2 kmh SW 4.9 mph7.9 kmh 29.91 in1012.9 mb 0.00 in0.0 mm 0.00 in0.0 mm 0.00 in0.0 mm
07:24 PM 57.9°F14.4°C 55.2°F12.9°C 91% 0.9 mph SSW1.4 kmh SSW 5.0 mph8.0 kmh 29.92 in1013.2 mb 0.00 in0.0 mm 0.00 in0.0 mm 0.00 in0.0 mm
07:34 PM 57.7°F14.3°C 55.2°F12.9°C 91% 2.0 mph NW3.2 kmh NW 4.9 mph7.9 kmh 29.92 in1013.2 mb 0.00 in0.0 mm 0.00 in0.0 mm 0.00 in0.0 mm
07:44 PM 57.7°F14.3°C 55.4°F13.0°C 92% 2.0 mph WSW3.2 kmh WSW 4.9 mph7.9 kmh 29.92 in1013.2 mb 0.00 in0.0 mm 0.00 in0.0 mm 0.00 in0.0 mm
07:54 PM 57.6°F14.2°C 55.6°F13.1°C 93% 2.9 mph W4.7 kmh W 4.9 mph7.9 kmh 29.93 in1013.5 mb 0.00 in0.0 mm 0.00 in0.0 mm 0.00 in0.0 mm
08:04 PM 57.4°F14.1°C 55.4°F13.0°C 93% 2.0 mph WSW3.2 kmh WSW 4.9 mph7.9 kmh 29.92 in1013.2 mb 0.00 in0.0 mm 0.00 in0.0 mm 0.00 in0.0 mm
08:14 PM 57.2°F14.0°C 55.2°F12.9°C 93% 0.9 mph WSW1.4 kmh WSW 4.0 mph6.4 kmh 29.93 in1013.5 mb 0.00 in0.0 mm 0.00 in0.0 mm 0.00 in0.0 mm
08:24 PM 57.2°F14.0°C 55.2°F12.9°C 93% 2.0 mph SW3.2 kmh SW 4.0 mph6.4 kmh 29.93 in1013.5 mb 0.00 in0.0 mm 0.00 in0.0 mm 0.00 in0.0 mm
08:34 PM 57.0°F13.9°C 55.0°F12.8°C 93% 0.9 mph WSW1.4 kmh WSW 4.0 mph6.4 kmh 29.94 in1013.9 mb 0.00 in0.0 mm 0.00 in0.0 mm 0.00 in0.0 mm
08:44 PM 56.8°F13.8°C 54.9°F12.7°C 93% 2.0 mph W3.2 kmh W 6.0 mph9.7 kmh 29.94 in1013.9 mb 0.00 in0.0 mm 0.00 in0.0 mm 0.00 in0.0 mm
08:54 PM 56.8°F13.8°C 55.2°F12.9°C 94% Calm Calm 2.9 mph4.7 kmh 29.94 in1013.9 mb 0.00 in0.0 mm 0.00 in0.0 mm 0.00 in0.0 mm
09:04 PM 56.8°F13.8°C 54.9°F12.7°C 93% Calm Calm 2.0 mph3.2 kmh 29.93 in1013.5 mb 0.00 in0.0 mm 0.00 in0.0 mm 0.00 in0.0 mm
09:14 PM 56.8°F13.8°C 54.9°F12.7°C 93% Calm Calm 2.0 mph3.2 kmh 29.94 in1013.9 mb 0.00 in0.0 mm 0.00 in0.0 mm 0.00 in0.0 mm
09:24 PM 56.8°F13.8°C 54.9°F12.7°C 93% Calm Calm 2.0 mph3.2 kmh 29.94 in1013.9 mb 0.00 in0.0 mm 0.00 in0.0 mm 0.00 in0.0 mm
09:34 PM 56.8°F13.8°C 54.9°F12.7°C 93% Calm Calm 3.0 mph4.8 kmh 29.95 in1014.2 mb 0.00 in0.0 mm 0.00 in0.0 mm 0.00 in0.0 mm
09:44 PM 56.8°F13.8°C 54.9°F12.7°C 93% Calm Calm 0.9 mph1.4 kmh 29.95 in1014.2 mb 0.00 in0.0 mm 0.00 in0.0 mm 0.00 in0.0 mm
09:54 PM 56.8°F13.8°C 54.9°F12.7°C 93% Calm Calm 2.0 mph3.2 kmh 29.95 in1014.2 mb 0.00 in0.0 mm 0.00 in0.0 mm 0.00 in0.0 mm
10:04 PM 56.8°F13.8°C 54.9°F12.7°C 93% Calm Calm 0.9 mph1.4 kmh 29.96 in1014.6 mb 0.00 in0.0 mm 0.00 in0.0 mm 0.00 in0.0 mm
10:14 PM 56.8°F13.8°C 54.9°F12.7°C 93% Calm Calm -- 29.96 in1014.6 mb 0.00 in0.0 mm 0.00 in0.0 mm 0.00 in0.0 mm
10:24 PM 56.8°F13.8°C 54.9°F12.7°C 93% Calm Calm 1.0 mph1.6 kmh 29.96 in1014.6 mb 0.00 in0.0 mm 0.00 in0.0 mm 0.00 in0.0 mm
10:34 PM 57.0°F13.9°C 55.0°F12.8°C 93% Calm Calm 2.0 mph3.2 kmh 29.96 in1014.6 mb 0.00 in0.0 mm 0.00 in0.0 mm 0.00 in0.0 mm
10:44 PM 57.2°F14.0°C 55.2°F12.9°C 93% Calm Calm 2.0 mph3.2 kmh 29.96 in1014.6 mb 0.00 in0.0 mm 0.00 in0.0 mm 0.00 in0.0 mm
10:54 PM 57.2°F14.0°C 55.2°F12.9°C 93% Calm Calm 2.0 mph3.2 kmh 29.96 in1014.6 mb 0.00 in0.0 mm 0.00 in0.0 mm 0.00 in0.0 mm
11:04 PM 57.4°F14.1°C 55.4°F13.0°C 93% 0.9 mph NW1.4 kmh NW 2.9 mph4.7 kmh 29.96 in1014.6 mb 0.00 in0.0 mm 0.00 in0.0 mm 0.00 in0.0 mm
11:14 PM 57.2°F14.0°C 55.2°F12.9°C 93% 2.0 mph WNW3.2 kmh WNW 2.9 mph4.7 kmh 29.95 in1014.2 mb 0.00 in0.0 mm 0.00 in0.0 mm 0.00 in0.0 mm
11:24 PM 57.2°F14.0°C 55.2°F12.9°C 93% 2.0 mph WNW3.2 kmh WNW 4.0 mph6.4 kmh 29.96 in1014.6 mb 0.00 in0.0 mm 0.00 in0.0 mm 0.00 in0.0 mm
11:34 PM 57.2°F14.0°C 55.2°F12.9°C 93% 0.9 mph W1.4 kmh W 2.9 mph4.7 kmh 29.94 in1013.9 mb 0.00 in0.0 mm 0.00 in0.0 mm 0.00 in0.0 mm
11:44 PM 57.4°F14.1°C 55.0°F12.8°C 92% Calm Calm 0.9 mph1.4 kmh 29.94 in1013.9 mb 0.00 in0.0 mm 0.00 in0.0 mm 0.00 in0.0 mm
11:54 PM 57.4°F14.1°C 55.0°F12.8°C 92% Calm Calm 0.9 mph1.4 kmh 29.94 in1013.9 mb 0.00 in0.0 mm 0.00 in0.0 mm 0.00 in0.0 mm